Time;durP1;ratioP1;P1;durP2;ratioP2;P2;SDS_P1;SDS_P2;PMS_P1;PMS_P2;Temp;Humidity;BMP_temperature;BMP_pressure;BME280_temperature;BME280_humidity;BME280_pressure;Samples;Min_cycle;Max_cycle;Signal;HPM_P1;HPM_P2
2023/06/03 00:02:03;;;;;;;8.23;4.00;;;;;;;16.60;49.46;100177.72;1771040;80;21693;-52
2023/06/03 00:05:10;;;;;;;10.50;3.60;;;;;;;16.58;49.59;100174.33;1770993;80;22008;-53
2023/06/03 00:08:15;;;;;;;8.28;4.50;;;;;;;16.57;49.66;100169.88;1771191;80;21343;-52
2023/06/03 00:11:21;;;;;;;7.47;3.90;;;;;;;16.53;49.66;100169.98;1773081;80;21879;-52
2023/06/03 00:14:27;;;;;;;6.80;3.98;;;;;;;16.43;49.57;100174.56;1770894;81;21354;-51
2023/06/03 00:17:33;;;;;;;6.83;4.17;;;;;;;16.33;49.55;100175.02;1772395;80;21196;-51
2023/06/03 00:20:40;;;;;;;7.22;4.12;;;;;;;16.28;49.74;100180.34;1769030;80;21228;-52
2023/06/03 00:23:48;;;;;;;7.12;4.08;;;;;;;16.25;49.94;100175.27;1772739;79;21351;-51
2023/06/03 00:26:54;;;;;;;10.32;4.65;;;;;;;16.17;49.97;100175.50;1772759;79;21378;-52
2023/06/03 00:29:59;;;;;;;9.63;4.30;;;;;;;16.09;50.03;100164.68;1773095;80;21427;-53
2023/06/03 00:33:06;;;;;;;7.87;4.15;;;;;;;16.02;50.19;100163.01;1772814;79;21375;-52
2023/06/03 00:36:14;;;;;;;8.98;4.40;;;;;;;15.96;50.34;100164.73;1772795;80;21355;-51
2023/06/03 00:39:18;;;;;;;11.60;5.17;;;;;;;15.92;50.51;100163.45;1773114;80;21398;-51
2023/06/03 00:42:24;;;;;;;9.75;4.72;;;;;;;15.84;50.55;100169.20;1763891;81;21394;-52
2023/06/03 00:45:30;;;;;;;12.40;4.70;;;;;;;15.79;50.71;100165.41;1772972;80;21414;-52
2023/06/03 00:48:36;;;;;;;8.95;4.37;;;;;;;15.72;50.86;100159.03;1772748;81;21463;-52
2023/06/03 00:51:42;;;;;;;8.45;4.22;;;;;;;15.68;51.07;100153.09;1773011;80;21375;-53
2023/06/03 00:54:49;;;;;;;7.37;4.60;;;;;;;15.65;51.30;100159.04;1772798;80;21378;-52
2023/06/03 00:57:54;;;;;;;9.58;4.40;;;;;;;15.64;51.52;100148.22;1772741;80;21378;-52
2023/06/03 01:01:00;;;;;;;6.28;4.35;;;;;;;15.63;51.64;100150.67;1772706;81;21899;-52
2023/06/03 01:04:08;;;;;;;10.08;4.92;;;;;;;15.57;51.70;100141.87;1772793;80;21335;-53
2023/06/03 01:07:21;;;;;;;6.90;4.42;;;;;;;15.53;51.84;100138.69;1772685;79;21398;-52
2023/06/03 01:10:33;;;;;;;10.35;4.75;;;;;;;15.49;51.93;100136.02;1772923;80;21331;-52
2023/06/03 01:13:48;;;;;;;8.98;4.37;;;;;;;15.46;52.07;100139.20;1773302;80;21323;-52
2023/06/03 01:16:55;;;;;;;11.45;5.00;;;;;;;15.41;52.24;100136.27;1772980;80;21351;-52
2023/06/03 01:20:01;;;;;;;9.95;4.92;;;;;;;15.39;52.42;100142.52;1772900;80;21856;-53
2023/06/03 01:23:33;;;;;;;6.05;4.58;;;;;;;15.37;52.57;100143.22;1771367;80;21836;-51
2023/06/03 01:26:36;;;;;;;6.05;4.60;;;;;;;15.33;52.71;100140.58;1771289;80;21212;-53
2023/06/03 01:29:44;;;;;;;7.35;4.65;;;;;;;15.29;52.86;100146.19;1771160;80;21192;-53
2023/06/03 01:32:50;;;;;;;10.63;4.80;;;;;;;15.27;53.02;100149.67;1770879;80;21220;-52
2023/06/03 01:35:59;;;;;;;10.72;4.90;;;;;;;15.25;53.19;100149.59;1773003;80;21220;-53
2023/06/03 01:39:04;;;;;;;10.55;5.17;;;;;;;15.21;53.25;100149.16;1771354;80;21213;-53
2023/06/03 01:42:12;;;;;;;13.48;5.45;;;;;;;15.15;53.26;100144.48;1770786;79;21343;-53
2023/06/03 01:45:19;;;;;;;9.78;5.17;;;;;;;15.11;53.33;100140.44;1770685;80;21323;-53
2023/06/03 01:48:24;;;;;;;14.93;5.50;;;;;;;15.08;53.49;100142.23;1771784;80;21263;-53
2023/06/03 01:51:34;;;;;;;7.62;4.92;;;;;;;15.06;53.65;100144.38;1783532;80;21347;-52
2023/06/03 01:54:44;;;;;;;12.85;5.90;;;;;;;15.07;53.82;100146.07;1770952;81;21322;-53
2023/06/03 01:57:50;;;;;;;8.78;5.30;;;;;;;15.09;54.04;100143.96;1771104;81;21212;-52
2023/06/03 02:00:56;;;;;;;8.53;5.47;;;;;;;15.09;54.11;100135.69;1771064;80;21172;-53
2023/06/03 02:04:03;;;;;;;11.73;5.53;;;;;;;15.12;54.22;100141.30;1771274;80;21400;-53
2023/06/03 02:07:10;;;;;;;9.18;6.03;;;;;;;15.15;54.36;100143.62;1771116;81;21748;-53
2023/06/03 02:10:16;;;;;;;10.35;5.58;;;;;;;15.17;54.44;100139.62;1771041;80;21232;-53
2023/06/03 02:13:23;;;;;;;14.38;6.42;;;;;;;15.21;54.52;100151.05;1771267;79;21204;-52
2023/06/03 02:16:28;;;;;;;11.30;5.53;;;;;;;15.28;54.75;100147.78;1771224;81;21193;-53
2023/06/03 02:19:34;;;;;;;10.35;5.70;;;;;;;15.35;54.90;100149.47;1771074;80;21177;-52
2023/06/03 02:22:40;;;;;;;10.25;4.97;;;;;;;15.40;55.03;100155.23;1771498;80;21354;-52
2023/06/03 02:25:46;;;;;;;11.15;5.47;;;;;;;15.45;55.18;100172.01;1771036;80;21197;-52
2023/06/03 02:28:51;;;;;;;11.70;5.53;;;;;;;15.51;55.35;100178.05;1771117;80;21212;-53
2023/06/03 02:31:57;;;;;;;8.53;5.62;;;;;;;15.60;55.50;100184.21;1771175;80;21204;-53
2023/06/03 02:35:04;;;;;;;9.80;5.30;;;;;;;15.70;55.59;100175.81;1771903;80;21193;-53
2023/06/03 02:38:11;;;;;;;11.30;5.28;;;;;;;15.80;55.66;100173.47;1771105;81;21697;-52
2023/06/03 02:41:18;;;;;;;12.73;5.97;;;;;;;15.94;55.71;100175.66;1771157;81;21228;-52
2023/06/03 02:44:26;;;;;;;9.08;5.90;;;;;;;16.06;55.76;100178.92;1770968;81;21705;-52
2023/06/03 02:47:33;;;;;;;11.83;5.17;;;;;;;16.18;55.78;100173.59;1770928;81;21197;-52
2023/06/03 02:50:40;;;;;;;11.10;4.33;;;;;;;16.31;55.82;100181.32;1771100;81;21674;-52
2023/06/03 02:53:48;;;;;;;8.03;5.00;;;;;;;16.41;55.87;100184.45;1770919;81;21188;-52
2023/06/03 02:56:56;;;;;;;15.23;6.55;;;;;;;16.53;55.97;100181.04;1771089;81;21382;-52
2023/06/03 03:00:09;;;;;;;22.30;10.85;;;;;;;16.62;56.00;100179.74;1771872;80;21322;-52
2023/06/03 03:03:13;;;;;;;21.85;9.45;;;;;;;16.72;56.03;100179.58;1770942;81;21212;-52
2023/06/03 03:06:24;;;;;;;11.40;6.85;;;;;;;16.78;56.07;100180.59;1771248;80;21383;-52
2023/06/03 03:09:27;;;;;;;13.28;5.25;;;;;;;16.85;56.15;100180.89;1770920;81;21193;-51
2023/06/03 03:12:33;;;;;;;8.20;4.97;;;;;;;16.91;56.21;100186.91;1771166;80;21247;-51
2023/06/03 03:15:39;;;;;;;6.80;4.90;;;;;;;16.98;56.23;100189.64;1771124;80;21828;-52
2023/06/03 03:18:47;;;;;;;7.78;4.62;;;;;;;17.06;56.22;100196.30;1763644;81;21343;-52
2023/06/03 03:21:54;;;;;;;11.55;4.33;;;;;;;17.13;56.27;100203.48;1771141;81;21212;-52
2023/06/03 03:25:00;;;;;;;11.45;4.78;;;;;;;17.23;56.30;100209.91;1770422;80;21757;-52
2023/06/03 03:28:06;;;;;;;7.45;4.47;;;;;;;17.31;56.31;100223.48;1770791;80;21252;-52
2023/06/03 03:31:14;;;;;;;11.08;4.40;;;;;;;17.39;56.35;100224.59;1770858;80;21158;-52
2023/06/03 03:34:20;;;;;;;8.58;5.12;;;;;;;17.45;56.38;100219.58;1771401;80;21709;-53
2023/06/03 03:37:26;;;;;;;6.97;4.28;;;;;;;17.55;56.45;100226.86;1785494;80;21315;-53
2023/06/03 03:40:33;;;;;;;7.30;4.35;;;;;;;17.63;56.51;100216.33;1770817;79;21634;-53
2023/06/03 03:43:39;;;;;;;10.13;4.08;;;;;;;17.75;56.54;100225.62;1770970;80;21320;-53
2023/06/03 03:47:02;;;;;;;7.65;4.12;;;;;;;17.86;56.56;100229.03;1771324;80;21882;-52
2023/06/03 03:50:10;;;;;;;6.53;3.65;;;;;;;18.01;56.64;100226.45;1770589;80;21189;-52
2023/06/03 03:53:24;;;;;;;7.12;3.92;;;;;;;18.14;56.70;100246.55;1770985;80;21275;-53
2023/06/03 03:56:33;;;;;;;7.70;4.37;;;;;;;18.22;56.71;100240.72;1757944;80;21179;-52
2023/06/03 03:59:40;;;;;;;5.80;4.08;;;;;;;18.29;56.76;100247.05;1707653;82;21239;-53
2023/06/03 04:02:53;;;;;;;6.85;3.98;;;;;;;18.34;56.79;100248.61;1767106;80;21192;-52
2023/06/03 04:05:57;;;;;;;6.15;3.80;;;;;;;18.42;56.87;100254.41;1770566;80;21929;-52
2023/06/03 04:09:04;;;;;;;4.95;3.45;;;;;;;18.54;56.92;100256.19;1771530;80;21339;-54
2023/06/03 04:12:10;;;;;;;6.60;3.80;;;;;;;18.66;57.00;100261.27;1771486;80;21351;-53
2023/06/03 04:15:16;;;;;;;6.92;4.15;;;;;;;18.84;57.06;100263.19;1770896;79;21669;-53
2023/06/03 04:18:22;;;;;;;8.55;3.65;;;;;;;19.04;57.15;100261.03;1770506;79;21959;-53
2023/06/03 04:21:27;;;;;;;5.60;3.72;;;;;;;19.25;57.25;100269.69;1770037;80;21292;-54
2023/06/03 04:24:32;;;;;;;8.75;3.37;;;;;;;19.52;57.33;100265.19;1770007;81;21252;-53
2023/06/03 04:27:38;;;;;;;5.47;3.65;;;;;;;19.76;57.28;100273.86;1769537;79;21784;-54
2023/06/03 04:30:44;;;;;;;5.67;4.00;;;;;;;19.93;57.19;100277.10;1770222;80;21347;-53
2023/06/03 04:33:49;;;;;;;8.10;4.17;;;;;;;20.07;57.08;100267.48;1770050;81;21187;-53
2023/06/03 04:36:55;;;;;;;4.92;3.50;;;;;;;20.14;56.97;100279.88;1770252;80;21304;-51
2023/06/03 04:40:01;;;;;;;5.05;3.83;;;;;;;20.23;56.93;100280.68;1770171;81;21204;-51
2023/06/03 04:43:11;;;;;;;5.58;3.67;;;;;;;20.31;56.83;100278.11;1770077;79;21355;-52
2023/06/03 04:46:16;;;;;;;8.25;3.80;;;;;;;20.38;56.78;100282.98;1770833;80;21918;-54
2023/06/03 04:49:23;;;;;;;8.48;4.33;;;;;;;20.42;56.72;100280.86;1763706;80;21240;-52
2023/06/03 04:52:28;;;;;;;8.10;3.70;;;;;;;20.46;56.61;100284.87;1770599;81;21212;-53
2023/06/03 04:55:33;;;;;;;5.87;3.75;;;;;;;20.44;56.48;100282.87;1770612;81;21259;-52
2023/06/03 04:58:44;;;;;;;7.12;4.03;;;;;;;20.41;56.38;100274.16;1770418;80;21267;-52
2023/06/03 05:01:51;;;;;;;7.03;4.00;;;;;;;20.38;56.36;100292.19;1771215;81;21335;-55
2023/06/03 05:05:00;;;;;;;7.22;3.45;;;;;;;20.32;56.27;100286.73;1771062;79;21366;-50
2023/06/03 05:08:07;;;;;;;11.33;6.87;;;;;;;20.27;56.24;100278.27;1771119;80;22018;-54
2023/06/03 05:11:15;;;;;;;17.50;10.53;;;;;;;20.24;56.21;100275.97;1771011;80;21316;-50
2023/06/03 05:14:22;;;;;;;9.00;4.72;;;;;;;20.20;56.18;100272.00;1771395;80;21216;-52
2023/06/03 05:17:28;;;;;;;12.28;3.92;;;;;;;20.16;56.17;100265.21;1771520;80;21892;-51
2023/06/03 05:20:34;;;;;;;8.45;3.87;;;;;;;20.13;56.15;100267.05;1771199;79;21336;-50
2023/06/03 05:23:41;;;;;;;5.95;3.80;;;;;;;20.06;56.09;100267.73;1771255;81;21332;-52
2023/06/03 05:26:49;;;;;;;8.88;3.80;;;;;;;20.01;56.15;100273.16;1770123;80;21395;-53
2023/06/03 05:29:56;;;;;;;9.08;3.95;;;;;;;19.97;56.16;100258.88;1770941;80;21457;-53
2023/06/03 05:33:02;;;;;;;13.18;4.42;;;;;;;19.97;56.23;100263.59;1770696;80;21331;-53
2023/06/03 05:36:11;;;;;;;6.95;3.65;;;;;;;19.98;56.26;100272.25;1770555;81;22187;-52
2023/06/03 05:39:18;;;;;;;27.30;15.00;;;;;;;20.00;56.28;100288.11;1760193;80;21874;-53
2023/06/03 05:42:25;;;;;;;27.90;13.95;;;;;;;20.04;56.35;100279.62;1770908;80;21197;-53
2023/06/03 05:45:31;;;;;;;31.82;15.30;;;;;;;20.08;56.32;100275.26;1770456;80;21320;-53
2023/06/03 05:48:37;;;;;;;39.92;20.52;;;;;;;20.12;56.42;100284.83;1770735;80;21457;-53
2023/06/03 05:51:43;;;;;;;19.27;10.40;;;;;;;20.18;56.50;100283.89;1739956;82;21386;-52
2023/06/03 05:54:50;;;;;;;9.85;5.95;;;;;;;20.22;56.54;100279.53;1741053;82;21322;-52
2023/06/03 05:57:56;;;;;;;8.75;4.20;;;;;;;20.26;56.55;100293.27;1740073;82;21919;-52
2023/06/03 06:01:01;;;;;;;7.35;4.10;;;;;;;20.28;56.56;100291.92;1740446;82;21227;-52
2023/06/03 06:04:08;;;;;;;6.35;3.87;;;;;;;20.31;56.58;100301.17;1739001;82;21796;-53
2023/06/03 06:07:15;;;;;;;6.28;3.72;;;;;;;20.34;56.63;100299.30;1739138;82;21224;-53
2023/06/03 06:10:22;;;;;;;5.60;3.90;;;;;;;20.36;56.65;100313.81;1791930;79;22210;-54
2023/06/03 06:13:27;;;;;;;5.08;3.55;;;;;;;20.42;56.71;100317.58;1793776;79;21361;-46
2023/06/03 06:16:35;;;;;;;5.58;3.70;;;;;;;20.47;56.75;100321.31;1795533;78;21858;-46
2023/06/03 06:19:43;;;;;;;6.10;3.83;;;;;;;20.52;56.77;100328.93;1793979;79;21860;-46
2023/06/03 06:22:50;;;;;;;6.10;3.45;;;;;;;20.54;56.81;100329.55;1793506;80;21347;-47
2023/06/03 06:25:57;;;;;;;5.90;3.87;;;;;;;20.55;56.77;100337.64;1793723;79;21365;-47
2023/06/03 06:29:01;;;;;;;8.15;3.90;;;;;;;20.52;56.66;100337.27;1793642;79;21397;-46
2023/06/03 06:32:10;;;;;;;4.80;3.90;;;;;;;20.48;56.68;100338.86;1793096;80;21713;-47
2023/06/03 06:35:19;;;;;;;6.10;4.30;;;;;;;20.40;56.62;100347.02;1792968;80;21219;-45
2023/06/03 06:38:26;;;;;;;9.33;4.25;;;;;;;20.27;56.60;100343.08;1793850;79;21287;-47
2023/06/03 06:41:35;;;;;;;6.10;4.20;;;;;;;20.15;56.73;100335.23;1778731;79;21247;-48
2023/06/03 06:44:41;;;;;;;7.03;4.35;;;;;;;20.14;56.99;100357.19;1753494;81;21188;-46
2023/06/03 06:47:49;;;;;;;8.78;5.30;;;;;;;20.20;57.17;100368.73;1754101;81;21188;-47
2023/06/03 06:51:01;;;;;;;10.15;5.70;;;;;;;20.28;57.36;100374.52;1715668;83;21954;-46
2023/06/03 06:54:07;;;;;;;6.45;5.15;;;;;;;20.26;57.29;100369.19;1750337;81;21767;-46
2023/06/03 06:57:14;;;;;;;7.42;5.45;;;;;;;20.23;57.30;100352.14;1751050;81;21173;-46
2023/06/03 07:00:21;;;;;;;12.25;4.95;;;;;;;20.13;57.34;100345.73;1736432;81;21235;-47
2023/06/03 07:03:29;;;;;;;8.73;5.25;;;;;;;20.03;57.44;100337.66;1750916;81;21711;-47
2023/06/03 07:06:36;;;;;;;9.18;5.30;;;;;;;19.92;57.53;100334.31;1745836;80;21204;-47
2023/06/03 07:09:41;;;;;;;8.15;5.42;;;;;;;19.82;57.62;100331.28;1758374;81;21200;-47
2023/06/03 07:12:51;;;;;;;8.00;6.03;;;;;;;19.66;57.80;100329.17;1767125;81;21196;-47
2023/06/03 07:16:00;;;;;;;6.47;5.42;;;;;;;19.58;58.03;100328.97;1735782;81;21199;-45
2023/06/03 07:19:06;;;;;;;10.63;5.55;;;;;;;19.49;58.21;100336.47;1750819;81;21195;-46
2023/06/03 07:22:14;;;;;;;8.78;5.55;;;;;;;19.39;58.35;100341.20;1753429;81;21167;-46
2023/06/03 07:25:34;;;;;;;7.00;5.33;;;;;;;19.36;58.57;100365.80;1762155;80;21184;-46
2023/06/03 07:28:42;;;;;;;7.87;5.55;;;;;;;19.37;58.80;100364.17;1726547;81;21414;-47
2023/06/03 07:31:48;;;;;;;6.47;4.95;;;;;;;19.47;59.02;100369.17;1739709;81;21174;-47
2023/06/03 07:34:55;;;;;;;7.17;5.22;;;;;;;19.62;59.09;100372.37;1735332;81;21332;-48
2023/06/03 07:38:01;;;;;;;7.53;4.90;;;;;;;19.76;59.20;100390.02;1742391;81;21733;-47
2023/06/03 07:41:07;;;;;;;6.87;4.87;;;;;;;19.96;59.27;100390.59;1745423;81;21398;-46
2023/06/03 07:44:18;;;;;;;6.55;5.40;;;;;;;20.15;59.27;100383.06;1739309;81;21765;-47
2023/06/03 07:47:26;;;;;;;7.53;4.92;;;;;;;20.31;59.31;100381.81;1742853;80;21201;-47
2023/06/03 07:50:35;;;;;;;9.63;5.28;;;;;;;20.44;59.16;100400.20;1739603;81;21574;-49
2023/06/03 07:53:42;;;;;;;7.50;5.80;;;;;;;20.54;59.15;100406.03;1726681;81;21343;-46
2023/06/03 07:56:49;;;;;;;6.67;5.72;;;;;;;20.65;59.15;100408.84;1740817;81;21761;-48
2023/06/03 08:00:01;;;;;;;7.17;5.58;;;;;;;20.74;59.18;100414.34;1747907;81;21208;-45
2023/06/03 08:03:08;;;;;;;9.75;6.35;;;;;;;20.86;59.16;100418.53;1728640;81;21543;-46
2023/06/03 08:06:17;;;;;;;8.30;5.58;;;;;;;20.91;59.06;100414.48;1752220;81;21298;-53
2023/06/03 08:09:35;;;;;;;11.85;7.03;;;;;;;20.91;58.98;100422.83;1746088;80;21765;-50
2023/06/03 08:12:42;;;;;;;11.43;6.37;;;;;;;20.85;58.91;100426.59;1726349;83;21386;-46
2023/06/03 08:15:49;;;;;;;9.18;6.42;;;;;;;20.85;59.08;100439.11;1727013;83;21383;-47
2023/06/03 08:18:58;;;;;;;7.78;6.50;;;;;;;20.88;59.09;100440.02;1735203;81;21399;-47
2023/06/03 08:22:07;;;;;;;9.35;6.83;;;;;;;20.90;59.15;100443.38;1727605;82;21275;-48
2023/06/03 08:25:17;;;;;;;8.75;6.92;;;;;;;20.84;59.05;100441.57;1751417;81;21701;-48
2023/06/03 08:28:21;;;;;;;12.78;7.25;;;;;;;20.69;59.04;100435.64;1759041;81;21351;-47
2023/06/03 08:31:29;;;;;;;10.30;7.20;;;;;;;20.61;59.19;100445.73;1749058;80;21226;-47
2023/06/03 08:34:36;;;;;;;10.85;7.08;;;;;;;20.58;59.30;100455.95;1766595;80;21244;-47
2023/06/03 08:37:44;;;;;;;9.43;6.80;;;;;;;20.53;59.37;100461.38;1767864;80;21221;-48
2023/06/03 08:40:57;;;;;;;8.80;7.05;;;;;;;20.50;59.58;100463.25;1770399;79;21212;-47
2023/06/03 08:44:16;;;;;;;9.63;7.47;;;;;;;20.51;59.70;100476.05;1769301;80;21276;-47
2023/06/03 08:47:33;;;;;;;13.38;8.45;;;;;;;20.45;59.72;100489.53;1761075;80;21682;-47
2023/06/03 08:50:40;;;;;;;10.53;9.18;;;;;;;20.31;59.75;100496.38;1770478;80;21177;-48
2023/06/03 08:53:59;;;;;;;11.65;9.43;;;;;;;20.19;59.75;100509.37;1770610;80;21177;-47
2023/06/03 08:57:19;;;;;;;12.18;8.45;;;;;;;20.04;59.77;100518.64;1760172;80;21220;-47
2023/06/03 09:00:30;;;;;;;11.63;8.85;;;;;;;19.68;59.63;100532.00;1770539;80;21865;-47
2023/06/03 09:03:38;;;;;;;10.93;8.10;;;;;;;19.26;59.59;100540.66;1769873;80;21247;-48
2023/06/03 09:06:47;;;;;;;10.80;7.62;;;;;;;18.98;59.91;100543.03;1769797;80;21329;-48
2023/06/03 09:09:53;;;;;;;9.65;8.28;;;;;;;18.87;60.22;100550.70;1740287;81;21444;-47
2023/06/03 09:13:03;;;;;;;10.25;9.15;;;;;;;18.79;60.44;100552.92;1739869;82;21891;-47
2023/06/03 09:16:10;;;;;;;10.80;8.43;;;;;;;18.73;60.58;100562.11;1687033;84;21534;-46
2023/06/03 09:19:16;;;;;;;11.18;8.33;;;;;;;18.63;60.75;100565.38;1739908;82;21454;-45
2023/06/03 09:22:26;;;;;;;13.75;8.33;;;;;;;18.58;61.00;100593.48;1706637;84;21359;-45
2023/06/03 09:25:33;;;;;;;10.18;7.80;;;;;;;18.48;61.01;100599.52;1740246;81;21383;-45
2023/06/03 09:28:41;;;;;;;13.10;8.35;;;;;;;18.24;60.95;100594.69;1705693;82;21421;-47
2023/06/03 09:31:47;;;;;;;12.95;7.85;;;;;;;17.94;61.06;100600.46;1740023;80;21496;-45
2023/06/03 09:34:56;;;;;;;13.13;7.35;;;;;;;17.71;61.27;100617.56;1742652;81;21339;-45
2023/06/03 09:38:09;;;;;;;12.00;7.85;;;;;;;17.54;61.38;100626.53;1751131;80;21487;-47
2023/06/03 09:41:22;;;;;;;8.75;6.85;;;;;;;17.29;61.36;100644.83;1742241;81;21363;-46
2023/06/03 09:44:31;;;;;;;8.60;6.58;;;;;;;16.96;61.52;100650.34;1742350;82;21303;-50
2023/06/03 09:47:42;;;;;;;9.43;7.12;;;;;;;16.71;61.79;100660.30;1742466;81;21529;-46
2023/06/03 09:50:56;;;;;;;8.68;6.12;;;;;;;16.56;62.14;100655.98;1742399;82;21883;-46
2023/06/03 09:54:19;;;;;;;10.10;6.97;;;;;;;16.42;62.42;100656.44;1741757;82;21375;-46
2023/06/03 09:57:24;;;;;;;7.90;6.58;;;;;;;16.33;62.61;100666.81;1742547;81;21386;-46
2023/06/03 10:00:29;;;;;;;11.85;7.50;;;;;;;16.14;62.79;100680.00;1741534;81;21363;-49
2023/06/03 10:03:36;;;;;;;10.48;7.25;;;;;;;16.02;62.94;100682.16;1741937;82;21993;-50
2023/06/03 10:06:43;;;;;;;12.60;8.05;;;;;;;15.90;63.13;100697.06;1741801;82;21872;-48
2023/06/03 10:09:50;;;;;;;11.93;6.75;;;;;;;15.79;63.21;100699.00;1741704;81;21362;-49
2023/06/03 10:12:58;;;;;;;9.00;6.87;;;;;;;15.72;63.43;100704.16;1741748;82;21383;-50
2023/06/03 10:16:03;;;;;;;8.38;6.60;;;;;;;15.66;63.56;100719.63;1741734;81;21339;-52
2023/06/03 10:19:09;;;;;;;7.70;5.70;;;;;;;15.50;63.39;100730.95;1742111;81;21888;-52
2023/06/03 10:22:20;;;;;;;6.95;5.65;;;;;;;15.31;63.45;100741.25;1741809;81;21885;-50
2023/06/03 10:25:26;;;;;;;7.03;5.70;;;;;;;15.15;63.50;100747.55;1742011;81;21355;-50
2023/06/03 10:28:33;;;;;;;7.10;4.83;;;;;;;14.97;63.52;100748.84;1742273;81;21447;-49
2023/06/03 10:31:39;;;;;;;10.05;6.22;;;;;;;14.86;63.57;100756.77;1742143;81;21332;-48
2023/06/03 10:34:48;;;;;;;5.58;4.22;;;;;;;14.67;63.64;100751.87;1739411;81;21402;-51
2023/06/03 10:37:55;;;;;;;5.83;3.60;;;;;;;14.62;63.80;100762.61;1742065;81;21320;-52
2023/06/03 10:41:02;;;;;;;5.55;4.00;;;;;;;14.46;63.78;100749.08;1742171;81;21379;-50
2023/06/03 10:44:08;;;;;;;6.80;3.90;;;;;;;14.29;63.85;100766.83;1740399;81;21872;-49
2023/06/03 10:47:32;;;;;;;5.28;3.60;;;;;;;14.20;64.09;100763.30;1740327;80;21386;-52
2023/06/03 10:51:02;;;;;;;3.08;2.50;;;;;;;14.26;64.38;100780.47;1734416;81;21335;-53
2023/06/03 10:54:21;;;;;;;3.27;2.90;;;;;;;14.35;64.52;100773.81;1740453;82;21441;-50
2023/06/03 10:57:28;;;;;;;4.95;3.20;;;;;;;14.43;64.52;100778.39;1740494;82;21220;-51
2023/06/03 11:01:08;;;;;;;5.58;2.85;;;;;;;14.48;64.61;100783.64;1740554;82;21240;-54
2023/06/03 11:04:19;;;;;;;4.03;3.10;;;;;;;14.60;64.65;100784.02;1739982;81;21729;-52
2023/06/03 11:07:43;;;;;;;4.40;3.70;;;;;;;14.63;64.66;100796.89;1740110;81;21367;-52
2023/06/03 11:10:50;;;;;;;5.15;4.28;;;;;;;14.52;64.53;100811.67;1740235;82;21746;-52
2023/06/03 11:13:57;;;;;;;5.40;4.28;;;;;;;14.52;64.53;100811.67;1740484;81;21875;-53
2023/06/03 11:17:11;;;;;;;6.92;5.15;;;;;;;14.45;64.62;100795.05;1740813;82;21686;-50
2023/06/03 11:20:16;;;;;;;;;;;;;;;14.52;64.79;100789.11;1742657;82;21213;-49
2023/06/03 11:23:53;;;;;;;8.90;5.62;;;;;;;14.66;64.93;100795.12;1739978;82;20299;-49
2023/06/03 11:27:00;;;;;;;7.28;5.60;;;;;;;14.82;65.03;100809.21;1740145;82;21362;-54
2023/06/03 11:30:08;;;;;;;7.62;5.40;;;;;;;14.87;64.86;100806.73;1739478;80;21452;-50
2023/06/03 11:33:17;;;;;;;8.08;6.08;;;;;;;14.88;64.79;100798.78;1752804;80;21252;-50
2023/06/03 11:36:53;;;;;;;6.15;5.30;;;;;;;14.90;64.75;100800.84;1718760;81;21363;-52
2023/06/03 11:40:09;;;;;;;11.03;6.42;;;;;;;14.90;64.80;100805.80;1739028;81;21216;-51
2023/06/03 11:43:15;;;;;;;8.23;6.35;;;;;;;14.92;64.80;100800.95;1740394;80;21351;-50
2023/06/03 11:46:20;;;;;;;9.13;7.03;;;;;;;14.86;64.72;100796.73;1739649;82;21355;-52
2023/06/03 11:49:21;;;;;;;9.33;7.22;;;;;;;14.90;64.94;100805.80;1740982;82;21370;-53
2023/06/03 11:52:26;;;;;;;9.30;7.58;;;;;;;14.95;64.91;100817.11;1740159;81;21347;-50
2023/06/03 11:55:40;;;;;;;10.28;7.45;;;;;;;14.92;64.93;100806.47;1740611;81;21359;-53
2023/06/03 11:58:47;;;;;;;10.30;7.80;;;;;;;15.01;65.17;100808.60;1740153;81;21440;-51
2023/06/03 12:02:09;;;;;;;10.45;7.50;;;;;;;15.15;65.22;100811.84;1740220;82;21840;-54
2023/06/03 12:05:19;;;;;;;7.55;5.85;;;;;;;15.26;65.12;100808.56;1732373;82;21859;-53
2023/06/03 12:08:27;;;;;;;8.60;6.25;;;;;;;15.40;65.10;100810.44;1740558;82;21335;-53
2023/06/03 12:11:37;;;;;;;7.22;5.80;;;;;;;15.57;65.06;100815.19;1740194;81;21358;-52
2023/06/03 12:14:44;;;;;;;7.60;6.08;;;;;;;15.71;64.96;100800.45;1748873;80;21336;-53
2023/06/03 12:17:53;;;;;;;7.75;5.40;;;;;;;15.84;64.98;100810.23;1769922;80;22013;-49
2023/06/03 12:21:00;;;;;;;5.70;4.40;;;;;;;15.93;64.81;100809.03;1770830;80;21252;-51
2023/06/03 12:24:06;;;;;;;5.72;4.12;;;;;;;15.98;64.73;100812.88;1770523;81;21186;-53
2023/06/03 12:27:28;;;;;;;5.17;3.85;;;;;;;16.05;64.62;100822.09;1770590;80;21383;-53
2023/06/03 12:30:40;;;;;;;6.47;3.50;;;;;;;16.13;64.60;100813.66;1771107;80;21212;-52
2023/06/03 12:33:51;;;;;;;5.72;3.15;;;;;;;16.22;64.54;100819.89;1764103;80;21224;-53
2023/06/03 12:36:57;;;;;;;5.17;3.30;;;;;;;16.29;64.43;100816.11;1739279;82;21426;-50
2023/06/03 12:40:03;;;;;;;5.55;3.17;;;;;;;16.27;64.24;100817.35;1740161;82;21467;-51
2023/06/03 12:43:11;;;;;;;6.78;3.02;;;;;;;16.27;64.23;100820.98;1740511;82;21884;-51
2023/06/03 12:46:24;;;;;;;4.85;2.45;;;;;;;16.24;64.15;100808.95;1740485;82;21338;-53
2023/06/03 12:49:33;;;;;;;8.70;2.90;;;;;;;16.30;64.19;100827.48;1743137;80;21359;-52
2023/06/03 12:52:40;;;;;;;3.75;2.80;;;;;;;16.41;64.13;100828.84;1774517;80;21725;-51
2023/06/03 12:55:47;;;;;;;6.10;2.60;;;;;;;16.47;64.03;100839.12;1768551;81;21172;-51
2023/06/03 12:58:53;;;;;;;6.95;3.15;;;;;;;16.55;64.01;100847.77;1769242;80;21195;-51
2023/06/03 13:01:58;;;;;;;4.20;2.40;;;;;;;16.60;63.87;100845.25;1769420;81;21203;-50
2023/06/03 13:05:06;;;;;;;4.47;2.52;;;;;;;16.56;63.69;100842.03;1769744;81;21203;-52
2023/06/03 13:08:13;;;;;;;3.62;2.60;;;;;;;16.59;63.65;100841.63;1747134;81;21874;-51
2023/06/03 13:11:21;;;;;;;4.40;2.50;;;;;;;16.61;63.58;100844.19;1767391;80;21246;-53
2023/06/03 13:14:27;;;;;;;5.47;2.37;;;;;;;16.59;63.52;100839.38;1767564;80;21235;-53
2023/06/03 13:17:34;;;;;;;3.58;2.42;;;;;;;16.57;63.47;100844.28;1769186;81;21247;-53
2023/06/03 13:20:39;;;;;;;5.67;2.37;;;;;;;16.63;63.54;100853.14;1769770;81;21199;-54
2023/06/03 13:23:46;;;;;;;3.02;2.10;;;;;;;16.70;63.52;100849.90;1770032;81;21378;-52
2023/06/03 13:26:52;;;;;;;5.55;1.90;;;;;;;16.81;63.44;100849.32;1750089;81;21221;-54
2023/06/03 13:29:59;;;;;;;3.92;1.90;;;;;;;16.99;63.52;100859.28;1770041;81;21295;-50
2023/06/03 13:33:06;;;;;;;4.08;2.45;;;;;;;17.20;63.42;100852.25;1769598;81;21389;-51
2023/06/03 13:36:13;;;;;;;2.98;2.10;;;;;;;17.36;63.40;100847.73;1763439;80;21201;-54
2023/06/03 13:39:25;;;;;;;4.35;2.52;;;;;;;17.49;63.22;100861.10;1763379;80;21181;-52
2023/06/03 13:42:30;;;;;;;6.45;2.08;;;;;;;17.47;62.84;100851.31;1770540;81;21220;-52
2023/06/03 13:45:38;;;;;;;3.52;1.67;;;;;;;17.30;62.59;100852.17;1770040;80;21287;-53
2023/06/03 13:48:47;;;;;;;3.42;1.92;;;;;;;17.36;62.65;100850.50;1770489;79;21181;-52
2023/06/03 13:51:53;;;;;;;3.00;1.80;;;;;;;17.42;62.51;100846.89;1770020;81;21343;-51
2023/06/03 13:55:00;;;;;;;3.80;1.90;;;;;;;17.43;62.52;100837.00;1770388;80;21216;-53
2023/06/03 13:58:08;;;;;;;5.40;1.80;;;;;;;17.53;62.51;100833.86;1769620;80;21224;-51
2023/06/03 14:01:20;;;;;;;2.87;1.67;;;;;;;17.59;62.42;100841.31;1746367;81;21224;-53
2023/06/03 14:04:23;;;;;;;4.37;1.70;;;;;;;17.62;62.23;100829.30;1740129;82;21351;-50
2023/06/03 14:07:33;;;;;;;3.22;1.40;;;;;;;17.58;62.01;100838.23;1740137;81;21480;-52
2023/06/03 14:10:40;;;;;;;7.25;1.80;;;;;;;17.54;61.90;100840.56;1764863;80;21822;-51
2023/06/03 14:13:47;;;;;;;5.37;1.65;;;;;;;17.46;61.70;100837.13;1748836;80;21346;-52
2023/06/03 14:16:53;;;;;;;1.90;1.40;;;;;;;17.49;61.77;100843.66;1738556;82;21363;-52
2023/06/03 14:20:00;;;;;;;6.70;1.42;;;;;;;17.55;61.63;100855.27;1738975;81;21347;-51
2023/06/03 14:23:07;;;;;;;3.50;1.30;;;;;;;17.48;61.33;100855.77;1738614;82;21351;-52
2023/06/03 14:26:13;;;;;;;3.47;1.35;;;;;;;17.42;61.27;100841.36;1739323;82;21348;-53
2023/06/03 14:29:19;;;;;;;4.22;1.50;;;;;;;17.49;61.25;100851.41;1737242;82;21232;-52
2023/06/03 14:32:24;;;;;;;4.65;1.52;;;;;;;17.54;61.04;100854.94;1737300;81;21212;-51